Alabaster, MI

5:32 AM EDT on March 28, 2015 (GMT -0400)
Tawas Bay Weather | | Change Station
CLOSE
Current Station
Personal Weather Station
Location: East Tawas, MI
Elevation: 590 ft
Nearby Weather Stations

Elev 590 ft 44.28 °N, 83.48 °W | Updated 8 seconds ago

Clear
Clear
13.4 °F
Feels Like 13 °F
N
3.0
Wind Variable Wind from NW
Gusts 6.0 mph

Today
High -- | Low -- °F
--% Chance of Precip.
Yesterday
High -- | Low -- °F
Precip. -- in
7:23 AM 7:56 PM
First Quarter, 61% visible
Pressure 30.19 in
Visibility 10.0 miles
Clouds Clear
Windchill 13 °F
Dew Point 9 °F
Humidity 83%
Rainfall 0.00 in
Snow Depth Not available.
UV 0 out of 12
Pollen .90 out of 12
Air Quality Not available.
Flu Activity Not available.
METAR KOSC 280913Z AUTO 32007KT 10SM CLR M11/M13 A3019 RMK AO2 T11121135

More Conditions Fewer Conditions

Pressure 30.19 in
Visibility 10.0 miles
Clouds Clear
Windchill 13 °F
Dew Point 9 °F
Humidity 83%
Rainfall 0.00 in
Snow Depth Not available.
UV 0 out of 12
Pollen .90 out of 12
Air Quality Not available.
Flu Activity Not available.
METAR KOSC 280913Z AUTO 32007KT 10SM CLR M11/M13 A3019 RMK AO2 T11121135

More Conditions Fewer Conditions

Nowcast | as of 5:00 am EDT on March 28, 2015

At 6 am...partly cloudy. Scattered flurries. Temperature 13. North winds 7 mph. At 8 am...partly cloudy. Temperature 13. North winds 6 mph. At 10 am...mostly clear. Temperature 19. North winds 7 mph. At 12 PM...clear. Temperature 26. North winds 6 mph.

×

10-Day Weather Forecast

Almanac

Astronomy

Mar. 28, 2015 Rise Set
Actual Time
Civil Twilight
Nautical Twilight
Astronomical Twilight
Moon
Length of Visible Light
Length of Day
Tomorrow will be .
, % of the Moon is Illuminated

Today's Extremes

State Highs State Lows

Community

WunderPhotos

Upload Photos

1,808,939 photos uploaded!

WunderBlogs® & News

Nearby

Air Quality

  Air Quality AQ Index Pollutant
Not available.

Snow Depth

Station Depth Elevation

Earthquake Activity

City Distance Mag. Time & Date
Minimum magnitude displayed is 2.5.

Coastal Water Temperatures

Place Temperature

Stations

Nearby Weather Stations

Station Location Temp. Windchill Dew Point Humidity Wind Precip. Elev Updated Type